sensor_id;sensor_type;location;lat;lon;timestamp;P1;durP1;ratioP1;P2;durP2;ratioP2
35522;SDS011;61478;50.820;4.330;2023-04-03T00:02:18;14.48;;;5.88;;
35522;SDS011;61478;50.820;4.330;2023-04-03T00:04:44;11.70;;;5.90;;
35522;SDS011;61478;50.820;4.330;2023-04-03T00:07:10;8.82;;;6.03;;
35522;SDS011;61478;50.820;4.330;2023-04-03T00:09:37;8.32;;;5.10;;
35522;SDS011;61478;50.820;4.330;2023-04-03T00:12:03;9.55;;;5.40;;
35522;SDS011;61478;50.820;4.330;2023-04-03T00:14:29;11.48;;;5.53;;
35522;SDS011;61478;50.820;4.330;2023-04-03T00:16:55;13.85;;;6.43;;
35522;SDS011;61478;50.820;4.330;2023-04-03T00:19:21;11.07;;;6.40;;
35522;SDS011;61478;50.820;4.330;2023-04-03T00:21:46;8.93;;;6.05;;
35522;SDS011;61478;50.820;4.330;2023-04-03T00:24:12;7.28;;;5.32;;
35522;SDS011;61478;50.820;4.330;2023-04-03T00:26:38;17.50;;;6.60;;
35522;SDS011;61478;50.820;4.330;2023-04-03T00:29:04;9.07;;;6.20;;
35522;SDS011;61478;50.820;4.330;2023-04-03T00:31:30;12.73;;;6.07;;
35522;SDS011;61478;50.820;4.330;2023-04-03T00:33:56;17.33;;;6.43;;
35522;SDS011;61478;50.820;4.330;2023-04-03T00:36:22;13.27;;;6.00;;
35522;SDS011;61478;50.820;4.330;2023-04-03T00:38:48;11.20;;;5.65;;
35522;SDS011;61478;50.820;4.330;2023-04-03T00:41:13;10.18;;;5.28;;
35522;SDS011;61478;50.820;4.330;2023-04-03T00:43:39;6.82;;;5.20;;
35522;SDS011;61478;50.820;4.330;2023-04-03T00:46:05;9.60;;;6.13;;
35522;SDS011;61478;50.820;4.330;2023-04-03T00:48:32;15.07;;;5.70;;
35522;SDS011;61478;50.820;4.330;2023-04-03T00:51:04;13.48;;;7.18;;
35522;SDS011;61478;50.820;4.330;2023-04-03T00:53:50;8.50;;;5.30;;
35522;SDS011;61478;50.820;4.330;2023-04-03T00:56:26;8.98;;;5.00;;
35522;SDS011;61478;50.820;4.330;2023-04-03T00:58:56;8.25;;;5.45;;
35522;SDS011;61478;50.820;4.330;2023-04-03T01:01:29;9.25;;;4.95;;
35522;SDS011;61478;50.820;4.330;2023-04-03T01:03:55;8.70;;;5.00;;
35522;SDS011;61478;50.820;4.330;2023-04-03T01:06:24;8.70;;;5.03;;
35522;SDS011;61478;50.820;4.330;2023-04-03T01:08:58;12.75;;;4.93;;
35522;SDS011;61478;50.820;4.330;2023-04-03T01:11:25;8.63;;;5.10;;
35522;SDS011;61478;50.820;4.330;2023-04-03T01:13:52;10.60;;;5.63;;
35522;SDS011;61478;50.820;4.330;2023-04-03T01:16:18;9.20;;;5.50;;
35522;SDS011;61478;50.820;4.330;2023-04-03T01:18:44;7.32;;;5.00;;
35522;SDS011;61478;50.820;4.330;2023-04-03T01:21:16;9.93;;;5.28;;
35522;SDS011;61478;50.820;4.330;2023-04-03T01:24:08;7.38;;;4.88;;
35522;SDS011;61478;50.820;4.330;2023-04-03T01:26:50;9.85;;;4.88;;
35522;SDS011;61478;50.820;4.330;2023-04-03T01:29:16;8.30;;;5.60;;
35522;SDS011;61478;50.820;4.330;2023-04-03T01:31:52;12.35;;;5.75;;
35522;SDS011;61478;50.820;4.330;2023-04-03T01:34:19;8.40;;;5.05;;
35522;SDS011;61478;50.820;4.330;2023-04-03T01:36:45;10.45;;;5.18;;
35522;SDS011;61478;50.820;4.330;2023-04-03T01:39:11;6.90;;;4.78;;
35522;SDS011;61478;50.820;4.330;2023-04-03T01:41:37;10.32;;;5.85;;
35522;SDS011;61478;50.820;4.330;2023-04-03T01:44:03;12.93;;;5.65;;
35522;SDS011;61478;50.820;4.330;2023-04-03T01:46:29;13.27;;;6.20;;
35522;SDS011;61478;50.820;4.330;2023-04-03T01:48:56;8.45;;;5.18;;
35522;SDS011;61478;50.820;4.330;2023-04-03T01:51:22;12.27;;;5.78;;
35522;SDS011;61478;50.820;4.330;2023-04-03T01:53:48;9.98;;;5.57;;
35522;SDS011;61478;50.820;4.330;2023-04-03T01:56:13;7.95;;;5.38;;
35522;SDS011;61478;50.820;4.330;2023-04-03T01:58:39;9.13;;;5.28;;
35522;SDS011;61478;50.820;4.330;2023-04-03T02:01:06;9.68;;;5.55;;
35522;SDS011;61478;50.820;4.330;2023-04-03T02:03:31;7.18;;;4.75;;
35522;SDS011;61478;50.820;4.330;2023-04-03T02:05:57;8.57;;;5.40;;
35522;SDS011;61478;50.820;4.330;2023-04-03T02:08:23;7.80;;;5.43;;
35522;SDS011;61478;50.820;4.330;2023-04-03T02:10:50;8.80;;;4.63;;
35522;SDS011;61478;50.820;4.330;2023-04-03T02:13:17;10.30;;;5.68;;
35522;SDS011;61478;50.820;4.330;2023-04-03T02:15:43;6.47;;;4.18;;
35522;SDS011;61478;50.820;4.330;2023-04-03T02:18:10;8.95;;;5.72;;
35522;SDS011;61478;50.820;4.330;2023-04-03T02:20:36;11.13;;;5.05;;
35522;SDS011;61478;50.820;4.330;2023-04-03T02:23:02;9.32;;;5.38;;
35522;SDS011;61478;50.820;4.330;2023-04-03T02:25:30;8.98;;;5.13;;
35522;SDS011;61478;50.820;4.330;2023-04-03T02:27:56;14.48;;;5.50;;
35522;SDS011;61478;50.820;4.330;2023-04-03T02:30:22;8.15;;;5.35;;
35522;SDS011;61478;50.820;4.330;2023-04-03T02:32:48;8.48;;;4.90;;
35522;SDS011;61478;50.820;4.330;2023-04-03T02:35:14;11.05;;;5.78;;
35522;SDS011;61478;50.820;4.330;2023-04-03T02:37:40;12.98;;;6.25;;
35522;SDS011;61478;50.820;4.330;2023-04-03T02:40:06;9.68;;;5.97;;
35522;SDS011;61478;50.820;4.330;2023-04-03T02:42:33;8.60;;;5.38;;
35522;SDS011;61478;50.820;4.330;2023-04-03T02:44:59;9.27;;;6.40;;
35522;SDS011;61478;50.820;4.330;2023-04-03T02:47:26;7.32;;;5.63;;
35522;SDS011;61478;50.820;4.330;2023-04-03T02:49:52;9.50;;;5.85;;
35522;SDS011;61478;50.820;4.330;2023-04-03T02:52:18;16.10;;;6.68;;
35522;SDS011;61478;50.820;4.330;2023-04-03T02:54:45;11.30;;;6.47;;
35522;SDS011;61478;50.820;4.330;2023-04-03T02:57:11;10.55;;;5.90;;
35522;SDS011;61478;50.820;4.330;2023-04-03T02:59:37;9.02;;;5.38;;
35522;SDS011;61478;50.820;4.330;2023-04-03T03:02:06;9.23;;;5.25;;
35522;SDS011;61478;50.820;4.330;2023-04-03T03:04:33;12.00;;;5.82;;
35522;SDS011;61478;50.820;4.330;2023-04-03T03:06:59;7.10;;;5.38;;
35522;SDS011;61478;50.820;4.330;2023-04-03T03:09:25;9.45;;;5.93;;
35522;SDS011;61478;50.820;4.330;2023-04-03T03:11:51;8.70;;;5.55;;
35522;SDS011;61478;50.820;4.330;2023-04-03T03:14:17;10.50;;;6.65;;
35522;SDS011;61478;50.820;4.330;2023-04-03T03:16:43;13.32;;;6.10;;
35522;SDS011;61478;50.820;4.330;2023-04-03T03:19:09;14.82;;;5.68;;
35522;SDS011;61478;50.820;4.330;2023-04-03T03:21:35;9.02;;;5.40;;
35522;SDS011;61478;50.820;4.330;2023-04-03T03:24:01;10.27;;;4.93;;
35522;SDS011;61478;50.820;4.330;2023-04-03T03:26:27;12.60;;;5.80;;
35522;SDS011;61478;50.820;4.330;2023-04-03T03:28:53;11.35;;;5.97;;
35522;SDS011;61478;50.820;4.330;2023-04-03T03:31:19;10.48;;;5.40;;
35522;SDS011;61478;50.820;4.330;2023-04-03T03:33:45;11.23;;;6.05;;
35522;SDS011;61478;50.820;4.330;2023-04-03T03:36:11;11.65;;;6.18;;
35522;SDS011;61478;50.820;4.330;2023-04-03T03:38:37;20.08;;;6.30;;
35522;SDS011;61478;50.820;4.330;2023-04-03T03:41:03;10.43;;;5.97;;
35522;SDS011;61478;50.820;4.330;2023-04-03T03:43:29;11.27;;;5.88;;
35522;SDS011;61478;50.820;4.330;2023-04-03T03:45:55;11.93;;;5.70;;
35522;SDS011;61478;50.820;4.330;2023-04-03T03:48:21;21.58;;;6.68;;
35522;SDS011;61478;50.820;4.330;2023-04-03T03:50:47;8.27;;;4.97;;
35522;SDS011;61478;50.820;4.330;2023-04-03T03:53:14;10.43;;;5.75;;
35522;SDS011;61478;50.820;4.330;2023-04-03T03:55:40;16.33;;;5.90;;
35522;SDS011;61478;50.820;4.330;2023-04-03T03:58:06;12.43;;;6.70;;
35522;SDS011;61478;50.820;4.330;2023-04-03T04:00:32;12.50;;;6.43;;
35522;SDS011;61478;50.820;4.330;2023-04-03T04:02:58;6.90;;;5.43;;
35522;SDS011;61478;50.820;4.330;2023-04-03T04:05:24;16.30;;;6.47;;
35522;SDS011;61478;50.820;4.330;2023-04-03T04:07:51;8.80;;;6.15;;
35522;SDS011;61478;50.820;4.330;2023-04-03T04:10:17;20.75;;;7.07;;
35522;SDS011;61478;50.820;4.330;2023-04-03T04:12:43;9.45;;;6.85;;
35522;SDS011;61478;50.820;4.330;2023-04-03T04:15:09;11.23;;;6.22;;
35522;SDS011;61478;50.820;4.330;2023-04-03T04:17:36;15.13;;;10.35;;
35522;SDS011;61478;50.820;4.330;2023-04-03T04:20:05;10.23;;;6.82;;
35522;SDS011;61478;50.820;4.330;2023-04-03T04:22:31;13.80;;;6.60;;
35522;SDS011;61478;50.820;4.330;2023-04-03T04:24:57;12.73;;;6.82;;
35522;SDS011;61478;50.820;4.330;2023-04-03T04:27:22;13.40;;;6.30;;
35522;SDS011;61478;50.820;4.330;2023-04-03T04:29:48;14.35;;;6.63;;
35522;SDS011;61478;50.820;4.330;2023-04-03T04:32:14;9.13;;;6.20;;
35522;SDS011;61478;50.820;4.330;2023-04-03T04:34:40;10.10;;;6.25;;
35522;SDS011;61478;50.820;4.330;2023-04-03T04:37:06;10.43;;;6.63;;
35522;SDS011;61478;50.820;4.330;2023-04-03T04:39:32;22.63;;;6.95;;
35522;SDS011;61478;50.820;4.330;2023-04-03T04:41:57;14.07;;;7.18;;
35522;SDS011;61478;50.820;4.330;2023-04-03T04:44:23;12.77;;;7.05;;
35522;SDS011;61478;50.820;4.330;2023-04-03T04:46:49;12.90;;;6.20;;
35522;SDS011;61478;50.820;4.330;2023-04-03T04:49:15;10.93;;;6.72;;
35522;SDS011;61478;50.820;4.330;2023-04-03T04:51:41;12.48;;;6.40;;
35522;SDS011;61478;50.820;4.330;2023-04-03T04:54:07;15.52;;;6.57;;
35522;SDS011;61478;50.820;4.330;2023-04-03T04:56:33;15.10;;;6.72;;
35522;SDS011;61478;50.820;4.330;2023-04-03T04:58:59;16.55;;;7.03;;
35522;SDS011;61478;50.820;4.330;2023-04-03T05:01:25;45.55;;;9.10;;
35522;SDS011;61478;50.820;4.330;2023-04-03T05:03:51;10.57;;;7.13;;
35522;SDS011;61478;50.820;4.330;2023-04-03T05:06:17;9.57;;;6.72;;
35522;SDS011;61478;50.820;4.330;2023-04-03T05:08:43;12.70;;;7.32;;
35522;SDS011;61478;50.820;4.330;2023-04-03T05:11:09;22.13;;;7.63;;
35522;SDS011;61478;50.820;4.330;2023-04-03T05:13:34;18.20;;;7.80;;
35522;SDS011;61478;50.820;4.330;2023-04-03T05:16:00;16.25;;;7.38;;
35522;SDS011;61478;50.820;4.330;2023-04-03T05:18:26;16.08;;;8.18;;
35522;SDS011;61478;50.820;4.330;2023-04-03T05:20:52;17.48;;;8.85;;
35522;SDS011;61478;50.820;4.330;2023-04-03T05:23:18;22.10;;;8.88;;
35522;SDS011;61478;50.820;4.330;2023-04-03T05:25:44;12.65;;;8.10;;
35522;SDS011;61478;50.820;4.330;2023-04-03T05:28:12;15.57;;;9.02;;
35522;SDS011;61478;50.820;4.330;2023-04-03T05:30:38;11.93;;;7.97;;
35522;SDS011;61478;50.820;4.330;2023-04-03T05:33:04;15.57;;;9.05;;
35522;SDS011;61478;50.820;4.330;2023-04-03T05:35:31;20.17;;;9.10;;
35522;SDS011;61478;50.820;4.330;2023-04-03T05:37:57;19.35;;;8.82;;
35522;SDS011;61478;50.820;4.330;2023-04-03T05:40:23;25.88;;;9.60;;
35522;SDS011;61478;50.820;4.330;2023-04-03T05:42:48;15.20;;;8.07;;
35522;SDS011;61478;50.820;4.330;2023-04-03T05:45:14;16.05;;;9.20;;
35522;SDS011;61478;50.820;4.330;2023-04-03T05:47:40;16.10;;;8.10;;
35522;SDS011;61478;50.820;4.330;2023-04-03T05:50:06;15.30;;;9.02;;
35522;SDS011;61478;50.820;4.330;2023-04-03T05:52:34;21.88;;;9.65;;
35522;SDS011;61478;50.820;4.330;2023-04-03T05:55:02;17.10;;;9.45;;
35522;SDS011;61478;50.820;4.330;2023-04-03T05:57:28;22.48;;;10.52;;
35522;SDS011;61478;50.820;4.330;2023-04-03T05:59:54;26.95;;;9.85;;
35522;SDS011;61478;50.820;4.330;2023-04-03T06:02:21;24.05;;;9.95;;
35522;SDS011;61478;50.820;4.330;2023-04-03T06:04:48;28.38;;;10.68;;
35522;SDS011;61478;50.820;4.330;2023-04-03T06:07:14;30.77;;;10.27;;
35522;SDS011;61478;50.820;4.330;2023-04-03T06:09:41;21.27;;;9.50;;
35522;SDS011;61478;50.820;4.330;2023-04-03T06:12:08;34.35;;;10.52;;
35522;SDS011;61478;50.820;4.330;2023-04-03T06:14:34;22.60;;;9.13;;
35522;SDS011;61478;50.820;4.330;2023-04-03T06:17:00;29.25;;;10.07;;
35522;SDS011;61478;50.820;4.330;2023-04-03T06:19:26;26.90;;;11.25;;
35522;SDS011;61478;50.820;4.330;2023-04-03T06:21:53;40.20;;;10.32;;
35522;SDS011;61478;50.820;4.330;2023-04-03T06:24:19;29.17;;;10.20;;
35522;SDS011;61478;50.820;4.330;2023-04-03T06:26:47;22.02;;;10.13;;
35522;SDS011;61478;50.820;4.330;2023-04-03T06:29:13;22.15;;;9.80;;
35522;SDS011;61478;50.820;4.330;2023-04-03T06:31:39;20.15;;;9.13;;
35522;SDS011;61478;50.820;4.330;2023-04-03T06:34:05;28.33;;;10.02;;
35522;SDS011;61478;50.820;4.330;2023-04-03T06:36:34;33.72;;;10.55;;
35522;SDS011;61478;50.820;4.330;2023-04-03T06:39:00;17.55;;;8.80;;
35522;SDS011;61478;50.820;4.330;2023-04-03T06:41:26;19.98;;;9.25;;
35522;SDS011;61478;50.820;4.330;2023-04-03T06:43:52;34.13;;;12.10;;
35522;SDS011;61478;50.820;4.330;2023-04-03T06:46:19;16.95;;;9.38;;
35522;SDS011;61478;50.820;4.330;2023-04-03T06:48:47;20.48;;;10.88;;
35522;SDS011;61478;50.820;4.330;2023-04-03T06:51:24;25.60;;;10.80;;
35522;SDS011;61478;50.820;4.330;2023-04-03T06:53:55;11.88;;;9.45;;
35522;SDS011;61478;50.820;4.330;2023-04-03T06:56:23;22.52;;;9.60;;
35522;SDS011;61478;50.820;4.330;2023-04-03T06:58:51;13.50;;;9.57;;
35522;SDS011;61478;50.820;4.330;2023-04-03T07:01:19;14.63;;;9.27;;
35522;SDS011;61478;50.820;4.330;2023-04-03T07:03:46;16.65;;;8.48;;
35522;SDS011;61478;50.820;4.330;2023-04-03T07:06:13;13.70;;;8.32;;
35522;SDS011;61478;50.820;4.330;2023-04-03T07:08:41;14.90;;;8.90;;
35522;SDS011;61478;50.820;4.330;2023-04-03T07:11:08;22.88;;;9.82;;
35522;SDS011;61478;50.820;4.330;2023-04-03T07:13:35;15.68;;;9.15;;
35522;SDS011;61478;50.820;4.330;2023-04-03T07:16:01;18.52;;;9.43;;
35522;SDS011;61478;50.820;4.330;2023-04-03T07:18:30;18.33;;;10.70;;
35522;SDS011;61478;50.820;4.330;2023-04-03T07:20:56;22.38;;;9.20;;
35522;SDS011;61478;50.820;4.330;2023-04-03T07:23:22;13.45;;;8.35;;
35522;SDS011;61478;50.820;4.330;2023-04-03T07:25:49;14.45;;;7.68;;
35522;SDS011;61478;50.820;4.330;2023-04-03T07:28:16;13.90;;;8.45;;
35522;SDS011;61478;50.820;4.330;2023-04-03T07:30:46;16.02;;;8.73;;
35522;SDS011;61478;50.820;4.330;2023-04-03T07:33:16;18.50;;;8.90;;
35522;SDS011;61478;50.820;4.330;2023-04-03T07:35:43;14.75;;;7.75;;
35522;SDS011;61478;50.820;4.330;2023-04-03T07:38:10;15.32;;;9.13;;
35522;SDS011;61478;50.820;4.330;2023-04-03T07:40:36;14.05;;;7.43;;
35522;SDS011;61478;50.820;4.330;2023-04-03T07:43:03;22.02;;;8.82;;
35522;SDS011;61478;50.820;4.330;2023-04-03T07:45:30;13.88;;;7.88;;
35522;SDS011;61478;50.820;4.330;2023-04-03T07:47:56;12.05;;;7.45;;
35522;SDS011;61478;50.820;4.330;2023-04-03T07:50:23;14.82;;;7.85;;
35522;SDS011;61478;50.820;4.330;2023-04-03T07:52:48;10.70;;;6.90;;
35522;SDS011;61478;50.820;4.330;2023-04-03T07:55:16;15.48;;;7.25;;
35522;SDS011;61478;50.820;4.330;2023-04-03T07:57:42;11.88;;;7.80;;
35522;SDS011;61478;50.820;4.330;2023-04-03T08:00:08;12.55;;;7.60;;
35522;SDS011;61478;50.820;4.330;2023-04-03T08:02:34;14.13;;;8.00;;
35522;SDS011;61478;50.820;4.330;2023-04-03T08:05:00;16.60;;;8.23;;
35522;SDS011;61478;50.820;4.330;2023-04-03T08:07:27;13.43;;;7.03;;
35522;SDS011;61478;50.820;4.330;2023-04-03T08:09:53;11.20;;;6.70;;
35522;SDS011;61478;50.820;4.330;2023-04-03T08:12:18;13.80;;;7.13;;
35522;SDS011;61478;50.820;4.330;2023-04-03T08:14:44;15.60;;;6.97;;
35522;SDS011;61478;50.820;4.330;2023-04-03T08:17:10;12.45;;;7.25;;
35522;SDS011;61478;50.820;4.330;2023-04-03T08:19:39;20.20;;;7.72;;
35522;SDS011;61478;50.820;4.330;2023-04-03T08:22:05;12.60;;;7.10;;
35522;SDS011;61478;50.820;4.330;2023-04-03T08:24:32;11.70;;;7.32;;
35522;SDS011;61478;50.820;4.330;2023-04-03T08:26:58;8.93;;;6.07;;
35522;SDS011;61478;50.820;4.330;2023-04-03T08:29:24;12.52;;;6.88;;
35522;SDS011;61478;50.820;4.330;2023-04-03T08:31:50;14.32;;;6.22;;
35522;SDS011;61478;50.820;4.330;2023-04-03T08:34:16;15.45;;;7.30;;
35522;SDS011;61478;50.820;4.330;2023-04-03T08:36:42;14.75;;;6.40;;
35522;SDS011;61478;50.820;4.330;2023-04-03T08:39:09;10.88;;;6.10;;
35522;SDS011;61478;50.820;4.330;2023-04-03T08:47:08;18.02;;;6.70;;
35522;SDS011;61478;50.820;4.330;2023-04-03T08:49:51;14.15;;;5.75;;
35522;SDS011;61478;50.820;4.330;2023-04-03T08:52:42;10.57;;;5.25;;
35522;SDS011;61478;50.820;4.330;2023-04-03T08:58:02;11.73;;;6.35;;
35522;SDS011;61478;50.820;4.330;2023-04-03T09:00:41;12.23;;;5.03;;
35522;SDS011;61478;50.820;4.330;2023-04-03T09:03:11;6.35;;;4.13;;
35522;SDS011;61478;50.820;4.330;2023-04-03T09:08:29;11.57;;;5.63;;
35522;SDS011;61478;50.820;4.330;2023-04-03T09:11:24;10.60;;;4.75;;
35522;SDS011;61478;50.820;4.330;2023-04-03T09:18:57;8.35;;;3.58;;
35522;SDS011;61478;50.820;4.330;2023-04-03T09:21:39;7.90;;;3.38;;
35522;SDS011;61478;50.820;4.330;2023-04-03T09:24:09;10.95;;;3.33;;
35522;SDS011;61478;50.820;4.330;2023-04-03T09:26:42;7.55;;;3.88;;
35522;SDS011;61478;50.820;4.330;2023-04-03T09:29:14;5.43;;;3.00;;
35522;SDS011;61478;50.820;4.330;2023-04-03T09:31:43;7.28;;;3.40;;
35522;SDS011;61478;50.820;4.330;2023-04-03T09:36:46;9.65;;;3.00;;
35522;SDS011;61478;50.820;4.330;2023-04-03T09:39:21;9.03;;;3.33;;
35522;SDS011;61478;50.820;4.330;2023-04-03T09:42:05;10.80;;;3.05;;
35522;SDS011;61478;50.820;4.330;2023-04-03T09:44:41;7.55;;;3.88;;
35522;SDS011;61478;50.820;4.330;2023-04-03T09:55:17;10.77;;;3.17;;
35522;SDS011;61478;50.820;4.330;2023-04-03T09:57:44;8.50;;;2.95;;
35522;SDS011;61478;50.820;4.330;2023-04-03T10:00:21;4.22;;;2.22;;
35522;SDS011;61478;50.820;4.330;2023-04-03T10:02:57;8.05;;;3.10;;
35522;SDS011;61478;50.820;4.330;2023-04-03T10:05:33;8.85;;;3.10;;
35522;SDS011;61478;50.820;4.330;2023-04-03T10:10:41;6.13;;;2.55;;
35522;SDS011;61478;50.820;4.330;2023-04-03T10:13:13;5.63;;;2.78;;
35522;SDS011;61478;50.820;4.330;2023-04-03T10:15:54;5.93;;;2.95;;
35522;SDS011;61478;50.820;4.330;2023-04-03T10:24:05;7.72;;;3.03;;
35522;SDS011;61478;50.820;4.330;2023-04-03T10:34:33;7.72;;;3.33;;
35522;SDS011;61478;50.820;4.330;2023-04-03T10:39:57;7.97;;;2.50;;
35522;SDS011;61478;50.820;4.330;2023-04-03T10:45:10;9.43;;;2.75;;
35522;SDS011;61478;50.820;4.330;2023-04-03T10:47:56;7.78;;;2.38;;
35522;SDS011;61478;50.820;4.330;2023-04-03T10:53:04;5.03;;;2.40;;
35522;SDS011;61478;50.820;4.330;2023-04-03T10:58:50;6.32;;;2.70;;
35522;SDS011;61478;50.820;4.330;2023-04-03T11:01:30;4.95;;;2.65;;
35522;SDS011;61478;50.820;4.330;2023-04-03T11:03:59;6.68;;;2.30;;
35522;SDS011;61478;50.820;4.330;2023-04-03T11:06:32;5.50;;;2.45;;
35522;SDS011;61478;50.820;4.330;2023-04-03T11:12:20;17.33;;;2.58;;
35522;SDS011;61478;50.820;4.330;2023-04-03T11:14:59;4.18;;;2.08;;
35522;SDS011;61478;50.820;4.330;2023-04-03T11:17:48;4.82;;;1.92;;
35522;SDS011;61478;50.820;4.330;2023-04-03T11:20:26;12.73;;;2.45;;
35522;SDS011;61478;50.820;4.330;2023-04-03T11:23:05;9.15;;;2.30;;
35522;SDS011;61478;50.820;4.330;2023-04-03T11:25:37;11.10;;;2.80;;
35522;SDS011;61478;50.820;4.330;2023-04-03T11:28:11;9.07;;;2.10;;
35522;SDS011;61478;50.820;4.330;2023-04-03T11:35:45;27.05;;;3.90;;
35522;SDS011;61478;50.820;4.330;2023-04-03T11:38:30;5.00;;;1.92;;
35522;SDS011;61478;50.820;4.330;2023-04-03T11:41:04;8.63;;;2.05;;
35522;SDS011;61478;50.820;4.330;2023-04-03T11:43:33;6.05;;;2.42;;
35522;SDS011;61478;50.820;4.330;2023-04-03T11:46:05;5.13;;;2.10;;
35522;SDS011;61478;50.820;4.330;2023-04-03T11:53:43;15.43;;;3.05;;
35522;SDS011;61478;50.820;4.330;2023-04-03T12:01:46;9.20;;;2.65;;
35522;SDS011;61478;50.820;4.330;2023-04-03T12:04:24;4.40;;;1.90;;
35522;SDS011;61478;50.820;4.330;2023-04-03T12:06:53;4.63;;;2.10;;
35522;SDS011;61478;50.820;4.330;2023-04-03T12:15:19;8.57;;;3.83;;
35522;SDS011;61478;50.820;4.330;2023-04-03T12:17:43;6.80;;;2.38;;
35522;SDS011;61478;50.820;4.330;2023-04-03T12:26:03;4.20;;;2.30;;
35522;SDS011;61478;50.820;4.330;2023-04-03T12:28:36;5.20;;;1.92;;
35522;SDS011;61478;50.820;4.330;2023-04-03T12:31:04;3.42;;;1.85;;
35522;SDS011;61478;50.820;4.330;2023-04-03T12:42:22;11.70;;;2.40;;
35522;SDS011;61478;50.820;4.330;2023-04-03T12:44:59;8.43;;;2.70;;
35522;SDS011;61478;50.820;4.330;2023-04-03T12:47:34;4.40;;;1.77;;
35522;SDS011;61478;50.820;4.330;2023-04-03T12:50:15;5.30;;;2.88;;
35522;SDS011;61478;50.820;4.330;2023-04-03T12:55:26;5.85;;;1.73;;
35522;SDS011;61478;50.820;4.330;2023-04-03T12:57:52;6.22;;;1.85;;
35522;SDS011;61478;50.820;4.330;2023-04-03T13:00:21;5.10;;;2.35;;
35522;SDS011;61478;50.820;4.330;2023-04-03T13:02:53;6.20;;;1.92;;
35522;SDS011;61478;50.820;4.330;2023-04-03T13:05:20;5.18;;;1.98;;
35522;SDS011;61478;50.820;4.330;2023-04-03T13:07:52;5.07;;;1.80;;
35522;SDS011;61478;50.820;4.330;2023-04-03T13:10:28;3.58;;;2.33;;
35522;SDS011;61478;50.820;4.330;2023-04-03T13:12:55;5.32;;;1.83;;
35522;SDS011;61478;50.820;4.330;2023-04-03T13:15:24;8.65;;;1.67;;
35522;SDS011;61478;50.820;4.330;2023-04-03T13:18:20;3.88;;;1.52;;
35522;SDS011;61478;50.820;4.330;2023-04-03T13:20:47;3.00;;;1.92;;
35522;SDS011;61478;50.820;4.330;2023-04-03T13:23:14;6.72;;;2.08;;
35522;SDS011;61478;50.820;4.330;2023-04-03T13:25:45;4.68;;;1.80;;
35522;SDS011;61478;50.820;4.330;2023-04-03T13:28:13;4.97;;;1.90;;
35522;SDS011;61478;50.820;4.330;2023-04-03T13:30:56;4.65;;;1.98;;
35522;SDS011;61478;50.820;4.330;2023-04-03T13:33:29;3.75;;;1.75;;
35522;SDS011;61478;50.820;4.330;2023-04-03T13:36:05;3.72;;;1.65;;
35522;SDS011;61478;50.820;4.330;2023-04-03T13:38:32;5.82;;;2.05;;
35522;SDS011;61478;50.820;4.330;2023-04-03T13:41:00;7.57;;;1.60;;
35522;SDS011;61478;50.820;4.330;2023-04-03T13:43:49;3.88;;;1.77;;
35522;SDS011;61478;50.820;4.330;2023-04-03T13:48:42;2.85;;;1.58;;
35522;SDS011;61478;50.820;4.330;2023-04-03T13:58:54;7.90;;;1.85;;
35522;SDS011;61478;50.820;4.330;2023-04-03T14:01:32;5.88;;;1.58;;
35522;SDS011;61478;50.820;4.330;2023-04-03T14:04:11;3.90;;;1.98;;
35522;SDS011;61478;50.820;4.330;2023-04-03T14:06:46;4.32;;;2.17;;
35522;SDS011;61478;50.820;4.330;2023-04-03T14:09:12;3.65;;;1.77;;
35522;SDS011;61478;50.820;4.330;2023-04-03T14:11:39;4.78;;;2.03;;
35522;SDS011;61478;50.820;4.330;2023-04-03T14:14:16;7.10;;;1.85;;
35522;SDS011;61478;50.820;4.330;2023-04-03T14:16:46;6.53;;;2.08;;
35522;SDS011;61478;50.820;4.330;2023-04-03T14:19:19;6.78;;;2.38;;
35522;SDS011;61478;50.820;4.330;2023-04-03T14:21:48;4.47;;;1.75;;
35522;SDS011;61478;50.820;4.330;2023-04-03T14:24:14;5.50;;;2.67;;
35522;SDS011;61478;50.820;4.330;2023-04-03T14:26:40;14.50;;;8.38;;
35522;SDS011;61478;50.820;4.330;2023-04-03T14:29:06;3.47;;;1.95;;
35522;SDS011;61478;50.820;4.330;2023-04-03T14:31:32;7.47;;;2.10;;
35522;SDS011;61478;50.820;4.330;2023-04-03T14:33:57;3.42;;;1.73;;
35522;SDS011;61478;50.820;4.330;2023-04-03T14:36:24;7.97;;;1.60;;
35522;SDS011;61478;50.820;4.330;2023-04-03T14:38:52;10.27;;;4.45;;
35522;SDS011;61478;50.820;4.330;2023-04-03T14:41:20;7.72;;;1.90;;
35522;SDS011;61478;50.820;4.330;2023-04-03T14:43:50;3.95;;;1.60;;
35522;SDS011;61478;50.820;4.330;2023-04-03T14:46:28;4.38;;;1.52;;
35522;SDS011;61478;50.820;4.330;2023-04-03T14:48:56;4.22;;;2.15;;
35522;SDS011;61478;50.820;4.330;2023-04-03T14:51:23;7.65;;;2.03;;
35522;SDS011;61478;50.820;4.330;2023-04-03T14:53:49;5.20;;;2.05;;
35522;SDS011;61478;50.820;4.330;2023-04-03T14:56:19;4.70;;;1.98;;
35522;SDS011;61478;50.820;4.330;2023-04-03T14:58:54;4.90;;;2.03;;
35522;SDS011;61478;50.820;4.330;2023-04-03T15:01:22;4.47;;;1.60;;
35522;SDS011;61478;50.820;4.330;2023-04-03T15:03:48;3.20;;;1.63;;
35522;SDS011;61478;50.820;4.330;2023-04-03T15:06:15;4.88;;;1.55;;
35522;SDS011;61478;50.820;4.330;2023-04-03T15:08:42;5.82;;;2.55;;
35522;SDS011;61478;50.820;4.330;2023-04-03T15:11:16;4.82;;;2.00;;
35522;SDS011;61478;50.820;4.330;2023-04-03T15:13:42;4.82;;;1.67;;
35522;SDS011;61478;50.820;4.330;2023-04-03T15:16:18;5.80;;;2.00;;
35522;SDS011;61478;50.820;4.330;2023-04-03T15:18:45;5.53;;;2.15;;
35522;SDS011;61478;50.820;4.330;2023-04-03T15:21:12;5.53;;;3.08;;
35522;SDS011;61478;50.820;4.330;2023-04-03T15:23:39;9.27;;;2.25;;
35522;SDS011;61478;50.820;4.330;2023-04-03T15:26:05;4.07;;;1.83;;
35522;SDS011;61478;50.820;4.330;2023-04-03T15:28:39;4.78;;;1.80;;
35522;SDS011;61478;50.820;4.330;2023-04-03T15:31:07;2.38;;;1.38;;
35522;SDS011;61478;50.820;4.330;2023-04-03T15:33:34;11.00;;;1.80;;
35522;SDS011;61478;50.820;4.330;2023-04-03T15:36:00;4.38;;;1.90;;
35522;SDS011;61478;50.820;4.330;2023-04-03T15:38:27;6.13;;;1.80;;
35522;SDS011;61478;50.820;4.330;2023-04-03T15:40:53;5.05;;;1.70;;
35522;SDS011;61478;50.820;4.330;2023-04-03T15:43:20;6.00;;;1.70;;
35522;SDS011;61478;50.820;4.330;2023-04-03T15:45:47;3.45;;;1.63;;
35522;SDS011;61478;50.820;4.330;2023-04-03T15:48:13;3.85;;;1.67;;
35522;SDS011;61478;50.820;4.330;2023-04-03T15:50:39;9.95;;;2.15;;
35522;SDS011;61478;50.820;4.330;2023-04-03T15:53:05;5.22;;;1.92;;
35522;SDS011;61478;50.820;4.330;2023-04-03T15:55:32;5.32;;;2.10;;
35522;SDS011;61478;50.820;4.330;2023-04-03T15:58:00;5.40;;;1.73;;
35522;SDS011;61478;50.820;4.330;2023-04-03T16:00:26;5.75;;;2.30;;
35522;SDS011;61478;50.820;4.330;2023-04-03T16:02:58;5.03;;;1.58;;
35522;SDS011;61478;50.820;4.330;2023-04-03T16:05:26;8.38;;;2.30;;
35522;SDS011;61478;50.820;4.330;2023-04-03T16:07:52;4.95;;;2.08;;
35522;SDS011;61478;50.820;4.330;2023-04-03T16:10:20;5.32;;;1.73;;
35522;SDS011;61478;50.820;4.330;2023-04-03T16:12:46;4.57;;;2.45;;
35522;SDS011;61478;50.820;4.330;2023-04-03T16:15:12;5.63;;;2.20;;
35522;SDS011;61478;50.820;4.330;2023-04-03T16:17:38;5.82;;;1.85;;
35522;SDS011;61478;50.820;4.330;2023-04-03T16:20:08;4.82;;;2.20;;
35522;SDS011;61478;50.820;4.330;2023-04-03T16:22:35;5.78;;;2.20;;
35522;SDS011;61478;50.820;4.330;2023-04-03T16:25:03;7.13;;;2.70;;
35522;SDS011;61478;50.820;4.330;2023-04-03T16:27:30;6.95;;;2.50;;
35522;SDS011;61478;50.820;4.330;2023-04-03T16:29:59;5.72;;;2.40;;
35522;SDS011;61478;50.820;4.330;2023-04-03T16:32:26;8.32;;;3.22;;
35522;SDS011;61478;50.820;4.330;2023-04-03T16:34:55;7.22;;;3.15;;
35522;SDS011;61478;50.820;4.330;2023-04-03T16:37:21;7.68;;;2.40;;